sensor_id;sensor_type;location;lat;lon;timestamp;P1;durP1;ratioP1;P2;durP2;ratioP2
1366;SDS011;16877;48.810;9.282;2023-02-23T00:01:23;18.30;;;14.60;;
1366;SDS011;16877;48.810;9.282;2023-02-23T00:03:52;14.83;;;13.27;;
1366;SDS011;16877;48.810;9.282;2023-02-23T00:06:21;15.70;;;14.10;;
1366;SDS011;16877;48.810;9.282;2023-02-23T00:08:49;15.07;;;13.60;;
1366;SDS011;16877;48.810;9.282;2023-02-23T00:11:17;15.97;;;13.23;;
1366;SDS011;16877;48.810;9.282;2023-02-23T00:13:46;14.63;;;13.13;;
1366;SDS011;16877;48.810;9.282;2023-02-23T00:16:18;15.60;;;13.23;;
1366;SDS011;16877;48.810;9.282;2023-02-23T00:18:47;14.67;;;13.20;;
1366;SDS011;16877;48.810;9.282;2023-02-23T00:21:20;14.47;;;12.97;;
1366;SDS011;16877;48.810;9.282;2023-02-23T00:23:54;16.23;;;13.93;;
1366;SDS011;16877;48.810;9.282;2023-02-23T00:26:23;16.10;;;13.30;;
1366;SDS011;16877;48.810;9.282;2023-02-23T00:28:54;14.33;;;12.83;;
1366;SDS011;16877;48.810;9.282;2023-02-23T00:31:24;14.40;;;12.30;;
1366;SDS011;16877;48.810;9.282;2023-02-23T00:33:52;14.20;;;12.53;;
1366;SDS011;16877;48.810;9.282;2023-02-23T00:36:22;15.50;;;13.90;;
1366;SDS011;16877;48.810;9.282;2023-02-23T00:38:51;14.63;;;13.20;;
1366;SDS011;16877;48.810;9.282;2023-02-23T00:41:19;15.67;;;13.27;;
1366;SDS011;16877;48.810;9.282;2023-02-23T00:43:52;15.90;;;13.33;;
1366;SDS011;16877;48.810;9.282;2023-02-23T00:46:22;14.80;;;13.30;;
1366;SDS011;16877;48.810;9.282;2023-02-23T00:48:53;13.50;;;12.13;;
1366;SDS011;16877;48.810;9.282;2023-02-23T00:51:21;13.53;;;12.23;;
1366;SDS011;16877;48.810;9.282;2023-02-23T00:53:52;14.90;;;13.43;;
1366;SDS011;16877;48.810;9.282;2023-02-23T00:56:20;16.60;;;14.40;;
1366;SDS011;16877;48.810;9.282;2023-02-23T00:58:48;15.87;;;14.27;;
1366;SDS011;16877;48.810;9.282;2023-02-23T01:01:16;15.77;;;13.90;;
1366;SDS011;16877;48.810;9.282;2023-02-23T01:03:47;15.93;;;14.23;;
1366;SDS011;16877;48.810;9.282;2023-02-23T01:06:17;16.83;;;15.13;;
1366;SDS011;16877;48.810;9.282;2023-02-23T01:08:45;16.33;;;14.63;;
1366;SDS011;16877;48.810;9.282;2023-02-23T01:11:16;15.47;;;13.97;;
1366;SDS011;16877;48.810;9.282;2023-02-23T01:13:47;15.63;;;14.03;;
1366;SDS011;16877;48.810;9.282;2023-02-23T01:16:22;15.90;;;14.20;;
1366;SDS011;16877;48.810;9.282;2023-02-23T01:18:54;16.37;;;14.70;;
1366;SDS011;16877;48.810;9.282;2023-02-23T01:21:24;15.17;;;13.67;;
1366;SDS011;16877;48.810;9.282;2023-02-23T01:23:53;15.33;;;13.90;;
1366;SDS011;16877;48.810;9.282;2023-02-23T01:26:21;15.80;;;14.30;;
1366;SDS011;16877;48.810;9.282;2023-02-23T01:28:51;21.60;;;15.43;;
1366;SDS011;16877;48.810;9.282;2023-02-23T01:31:19;17.70;;;15.97;;
1366;SDS011;16877;48.810;9.282;2023-02-23T01:33:53;16.60;;;14.90;;
1366;SDS011;16877;48.810;9.282;2023-02-23T01:36:20;15.20;;;13.80;;
1366;SDS011;16877;48.810;9.282;2023-02-23T01:38:49;18.90;;;15.27;;
1366;SDS011;16877;48.810;9.282;2023-02-23T01:41:19;15.83;;;13.97;;
1366;SDS011;16877;48.810;9.282;2023-02-23T01:43:54;16.53;;;14.77;;
1366;SDS011;16877;48.810;9.282;2023-02-23T01:46:33;16.90;;;15.20;;
1366;SDS011;16877;48.810;9.282;2023-02-23T01:49:04;15.70;;;14.20;;
1366;SDS011;16877;48.810;9.282;2023-02-23T01:51:36;15.60;;;14.00;;
1366;SDS011;16877;48.810;9.282;2023-02-23T01:54:08;15.40;;;13.80;;
1366;SDS011;16877;48.810;9.282;2023-02-23T01:56:41;15.90;;;14.40;;
1366;SDS011;16877;48.810;9.282;2023-02-23T01:59:11;16.13;;;14.43;;
1366;SDS011;16877;48.810;9.282;2023-02-23T02:01:40;15.47;;;13.87;;
1366;SDS011;16877;48.810;9.282;2023-02-23T02:04:10;15.50;;;14.00;;
1366;SDS011;16877;48.810;9.282;2023-02-23T02:06:40;15.63;;;14.13;;
1366;SDS011;16877;48.810;9.282;2023-02-23T02:09:21;14.90;;;13.40;;
1366;SDS011;16877;48.810;9.282;2023-02-23T02:11:52;14.90;;;13.30;;
1366;SDS011;16877;48.810;9.282;2023-02-23T02:14:20;17.00;;;15.03;;
1366;SDS011;16877;48.810;9.282;2023-02-23T02:17:01;15.37;;;13.57;;
1366;SDS011;16877;48.810;9.282;2023-02-23T02:19:49;15.40;;;13.90;;
1366;SDS011;16877;48.810;9.282;2023-02-23T02:25:57;14.00;;;12.60;;
1366;SDS011;16877;48.810;9.282;2023-02-23T02:28:51;15.47;;;13.80;;
1366;SDS011;16877;48.810;9.282;2023-02-23T02:31:42;15.70;;;14.07;;
1366;SDS011;16877;48.810;9.282;2023-02-23T02:34:39;17.40;;;13.60;;
1366;SDS011;16877;48.810;9.282;2023-02-23T02:37:27;14.63;;;13.20;;
1366;SDS011;16877;48.810;9.282;2023-02-23T02:40:05;15.03;;;13.57;;
1366;SDS011;16877;48.810;9.282;2023-02-23T02:42:47;14.77;;;13.27;;
1366;SDS011;16877;48.810;9.282;2023-02-23T02:45:24;15.13;;;13.37;;
1366;SDS011;16877;48.810;9.282;2023-02-23T02:48:13;16.23;;;13.83;;
1366;SDS011;16877;48.810;9.282;2023-02-23T02:50:44;15.43;;;13.60;;
1366;SDS011;16877;48.810;9.282;2023-02-23T02:53:29;14.73;;;13.23;;
1366;SDS011;16877;48.810;9.282;2023-02-23T02:56:05;15.23;;;13.63;;
1366;SDS011;16877;48.810;9.282;2023-02-23T02:58:35;15.13;;;13.60;;
1366;SDS011;16877;48.810;9.282;2023-02-23T03:01:06;16.53;;;14.83;;
1366;SDS011;16877;48.810;9.282;2023-02-23T03:03:54;13.47;;;12.17;;
1366;SDS011;16877;48.810;9.282;2023-02-23T03:06:42;16.37;;;14.47;;
1366;SDS011;16877;48.810;9.282;2023-02-23T03:09:33;22.83;;;14.40;;
1366;SDS011;16877;48.810;9.282;2023-02-23T03:12:25;13.73;;;12.23;;
1366;SDS011;16877;48.810;9.282;2023-02-23T03:15:19;15.67;;;12.43;;
1366;SDS011;16877;48.810;9.282;2023-02-23T03:18:20;14.00;;;12.60;;
1366;SDS011;16877;48.810;9.282;2023-02-23T03:21:18;15.30;;;13.70;;
1366;SDS011;16877;48.810;9.282;2023-02-23T03:24:10;13.70;;;12.40;;
1366;SDS011;16877;48.810;9.282;2023-02-23T03:27:02;15.40;;;13.90;;
1366;SDS011;16877;48.810;9.282;2023-02-23T03:29:52;12.87;;;11.60;;
1366;SDS011;16877;48.810;9.282;2023-02-23T03:32:43;14.53;;;13.00;;
1366;SDS011;16877;48.810;9.282;2023-02-23T03:35:32;15.40;;;13.80;;
1366;SDS011;16877;48.810;9.282;2023-02-23T03:38:24;14.90;;;13.40;;
1366;SDS011;16877;48.810;9.282;2023-02-23T03:41:17;13.77;;;12.33;;
1366;SDS011;16877;48.810;9.282;2023-02-23T03:44:07;15.00;;;13.50;;
1366;SDS011;16877;48.810;9.282;2023-02-23T03:46:55;14.63;;;13.13;;
1366;SDS011;16877;48.810;9.282;2023-02-23T03:49:41;13.53;;;12.23;;
1366;SDS011;16877;48.810;9.282;2023-02-23T03:52:26;14.53;;;13.07;;
1366;SDS011;16877;48.810;9.282;2023-02-23T03:55:16;14.20;;;12.90;;
1366;SDS011;16877;48.810;9.282;2023-02-23T03:58:04;13.33;;;12.00;;
1366;SDS011;16877;48.810;9.282;2023-02-23T04:00:55;13.23;;;12.03;;
1366;SDS011;16877;48.810;9.282;2023-02-23T04:03:44;14.00;;;12.33;;
1366;SDS011;16877;48.810;9.282;2023-02-23T04:06:31;16.47;;;14.73;;
1366;SDS011;16877;48.810;9.282;2023-02-23T04:09:20;15.00;;;12.70;;
1366;SDS011;16877;48.810;9.282;2023-02-23T04:12:06;14.37;;;12.93;;
1366;SDS011;16877;48.810;9.282;2023-02-23T04:14:56;14.27;;;12.87;;
1366;SDS011;16877;48.810;9.282;2023-02-23T04:17:29;14.67;;;13.20;;
1366;SDS011;16877;48.810;9.282;2023-02-23T04:19:57;14.07;;;12.77;;
1366;SDS011;16877;48.810;9.282;2023-02-23T04:22:24;13.53;;;12.23;;
1366;SDS011;16877;48.810;9.282;2023-02-23T04:24:52;15.13;;;13.63;;
1366;SDS011;16877;48.810;9.282;2023-02-23T04:27:19;14.90;;;13.37;;
1366;SDS011;16877;48.810;9.282;2023-02-23T04:29:47;15.20;;;13.80;;
1366;SDS011;16877;48.810;9.282;2023-02-23T04:32:15;15.13;;;13.57;;
1366;SDS011;16877;48.810;9.282;2023-02-23T04:34:46;15.53;;;13.87;;
1366;SDS011;16877;48.810;9.282;2023-02-23T04:37:13;13.73;;;12.33;;
1366;SDS011;16877;48.810;9.282;2023-02-23T04:39:41;13.90;;;12.47;;
1366;SDS011;16877;48.810;9.282;2023-02-23T04:42:12;15.47;;;13.97;;
1366;SDS011;16877;48.810;9.282;2023-02-23T04:44:40;15.00;;;13.67;;
1366;SDS011;16877;48.810;9.282;2023-02-23T04:47:07;15.10;;;13.60;;
1366;SDS011;16877;48.810;9.282;2023-02-23T04:49:35;14.83;;;12.80;;
1366;SDS011;16877;48.810;9.282;2023-02-23T04:52:04;14.80;;;13.23;;
1366;SDS011;16877;48.810;9.282;2023-02-23T04:54:32;15.60;;;14.13;;
1366;SDS011;16877;48.810;9.282;2023-02-23T04:56:59;14.80;;;13.30;;
1366;SDS011;16877;48.810;9.282;2023-02-23T04:59:27;15.40;;;13.40;;
1366;SDS011;16877;48.810;9.282;2023-02-23T05:01:55;16.47;;;12.40;;
1366;SDS011;16877;48.810;9.282;2023-02-23T05:04:37;14.40;;;12.23;;
1366;SDS011;16877;48.810;9.282;2023-02-23T05:07:06;14.47;;;12.70;;
1366;SDS011;16877;48.810;9.282;2023-02-23T05:09:33;14.50;;;13.00;;
1366;SDS011;16877;48.810;9.282;2023-02-23T05:12:00;17.00;;;15.20;;
1366;SDS011;16877;48.810;9.282;2023-02-23T05:14:28;15.40;;;13.77;;
1366;SDS011;16877;48.810;9.282;2023-02-23T05:16:55;15.47;;;13.97;;
1366;SDS011;16877;48.810;9.282;2023-02-23T05:19:23;15.17;;;13.67;;
1366;SDS011;16877;48.810;9.282;2023-02-23T05:21:55;14.73;;;13.33;;
1366;SDS011;16877;48.810;9.282;2023-02-23T05:24:24;15.80;;;14.20;;
1366;SDS011;16877;48.810;9.282;2023-02-23T05:26:51;14.97;;;13.37;;
1366;SDS011;16877;48.810;9.282;2023-02-23T05:29:19;15.00;;;13.33;;
1366;SDS011;16877;48.810;9.282;2023-02-23T05:31:47;15.57;;;13.97;;
1366;SDS011;16877;48.810;9.282;2023-02-23T05:34:14;15.20;;;13.80;;
1366;SDS011;16877;48.810;9.282;2023-02-23T05:36:42;15.30;;;13.80;;
1366;SDS011;16877;48.810;9.282;2023-02-23T05:39:13;14.47;;;13.17;;
1366;SDS011;16877;48.810;9.282;2023-02-23T05:41:43;17.73;;;15.23;;
1366;SDS011;16877;48.810;9.282;2023-02-23T05:44:10;14.83;;;13.40;;
1366;SDS011;16877;48.810;9.282;2023-02-23T05:46:38;15.60;;;13.93;;
1366;SDS011;16877;48.810;9.282;2023-02-23T05:49:06;16.63;;;14.67;;
1366;SDS011;16877;48.810;9.282;2023-02-23T05:51:33;16.03;;;14.17;;
1366;SDS011;16877;48.810;9.282;2023-02-23T05:54:01;16.60;;;15.00;;
1366;SDS011;16877;48.810;9.282;2023-02-23T05:56:28;16.10;;;14.40;;
1366;SDS011;16877;48.810;9.282;2023-02-23T05:58:57;15.13;;;13.63;;
1366;SDS011;16877;48.810;9.282;2023-02-23T06:01:26;15.87;;;14.03;;
1366;SDS011;16877;48.810;9.282;2023-02-23T06:03:54;15.27;;;13.77;;
1366;SDS011;16877;48.810;9.282;2023-02-23T06:06:21;15.10;;;13.60;;
1366;SDS011;16877;48.810;9.282;2023-02-23T06:08:49;15.43;;;13.83;;
1366;SDS011;16877;48.810;9.282;2023-02-23T06:11:21;14.20;;;12.80;;
1366;SDS011;16877;48.810;9.282;2023-02-23T06:13:52;15.43;;;13.93;;
1366;SDS011;16877;48.810;9.282;2023-02-23T06:16:23;15.77;;;14.17;;
1366;SDS011;16877;48.810;9.282;2023-02-23T06:19:09;14.27;;;12.87;;
1366;SDS011;16877;48.810;9.282;2023-02-23T06:21:36;14.40;;;13.00;;
1366;SDS011;16877;48.810;9.282;2023-02-23T06:24:07;15.40;;;13.80;;
1366;SDS011;16877;48.810;9.282;2023-02-23T06:26:36;18.10;;;14.10;;
1366;SDS011;16877;48.810;9.282;2023-02-23T06:29:04;15.20;;;13.40;;
1366;SDS011;16877;48.810;9.282;2023-02-23T06:31:33;17.20;;;15.47;;
1366;SDS011;16877;48.810;9.282;2023-02-23T06:34:02;14.70;;;13.17;;
1366;SDS011;16877;48.810;9.282;2023-02-23T06:36:30;14.53;;;13.17;;
1366;SDS011;16877;48.810;9.282;2023-02-23T06:38:58;14.70;;;13.30;;
1366;SDS011;16877;48.810;9.282;2023-02-23T06:41:26;18.70;;;14.37;;
1366;SDS011;16877;48.810;9.282;2023-02-23T06:43:55;14.93;;;13.60;;
1366;SDS011;16877;48.810;9.282;2023-02-23T06:46:23;16.53;;;14.93;;
1366;SDS011;16877;48.810;9.282;2023-02-23T06:48:55;14.67;;;13.13;;
1366;SDS011;16877;48.810;9.282;2023-02-23T06:51:31;17.00;;;14.97;;
1366;SDS011;16877;48.810;9.282;2023-02-23T06:53:59;16.80;;;15.10;;
1366;SDS011;16877;48.810;9.282;2023-02-23T06:56:27;16.10;;;14.40;;
1366;SDS011;16877;48.810;9.282;2023-02-23T06:59:04;16.07;;;14.30;;
1366;SDS011;16877;48.810;9.282;2023-02-23T07:01:32;15.30;;;13.90;;
1366;SDS011;16877;48.810;9.282;2023-02-23T07:04:02;15.97;;;14.30;;
1366;SDS011;16877;48.810;9.282;2023-02-23T07:06:29;15.87;;;13.83;;
1366;SDS011;16877;48.810;9.282;2023-02-23T07:08:56;15.40;;;13.80;;
1366;SDS011;16877;48.810;9.282;2023-02-23T07:11:24;14.83;;;13.33;;
1366;SDS011;16877;48.810;9.282;2023-02-23T07:13:52;16.43;;;14.60;;
1366;SDS011;16877;48.810;9.282;2023-02-23T07:16:22;15.80;;;14.30;;
1366;SDS011;16877;48.810;9.282;2023-02-23T07:18:51;16.07;;;14.33;;
1366;SDS011;16877;48.810;9.282;2023-02-23T07:21:21;16.33;;;14.70;;
1366;SDS011;16877;48.810;9.282;2023-02-23T07:23:48;16.70;;;14.90;;
1366;SDS011;16877;48.810;9.282;2023-02-23T07:26:20;17.13;;;15.43;;
1366;SDS011;16877;48.810;9.282;2023-02-23T07:28:49;15.33;;;13.83;;
1366;SDS011;16877;48.810;9.282;2023-02-23T07:31:16;15.73;;;14.10;;
1366;SDS011;16877;48.810;9.282;2023-02-23T07:33:44;18.10;;;15.80;;
1366;SDS011;16877;48.810;9.282;2023-02-23T07:36:11;16.63;;;14.77;;
1366;SDS011;16877;48.810;9.282;2023-02-23T07:38:40;18.17;;;16.30;;
1366;SDS011;16877;48.810;9.282;2023-02-23T07:41:07;16.80;;;15.00;;
1366;SDS011;16877;48.810;9.282;2023-02-23T07:43:35;16.57;;;14.87;;
1366;SDS011;16877;48.810;9.282;2023-02-23T07:46:04;15.67;;;14.07;;
1366;SDS011;16877;48.810;9.282;2023-02-23T07:48:31;16.00;;;14.50;;
1366;SDS011;16877;48.810;9.282;2023-02-23T07:50:59;14.87;;;13.47;;
1366;SDS011;16877;48.810;9.282;2023-02-23T07:53:26;17.27;;;15.47;;
1366;SDS011;16877;48.810;9.282;2023-02-23T07:55:56;14.60;;;13.20;;
1366;SDS011;16877;48.810;9.282;2023-02-23T07:58:24;14.23;;;12.77;;
1366;SDS011;16877;48.810;9.282;2023-02-23T08:00:52;16.20;;;13.00;;
1366;SDS011;16877;48.810;9.282;2023-02-23T08:03:20;16.10;;;14.40;;
1366;SDS011;16877;48.810;9.282;2023-02-23T08:05:48;15.03;;;13.43;;
1366;SDS011;16877;48.810;9.282;2023-02-23T08:08:16;15.83;;;14.23;;
1366;SDS011;16877;48.810;9.282;2023-02-23T08:11:00;17.03;;;15.33;;
1366;SDS011;16877;48.810;9.282;2023-02-23T08:13:28;15.07;;;13.60;;
1366;SDS011;16877;48.810;9.282;2023-02-23T08:15:56;16.07;;;14.37;;
1366;SDS011;16877;48.810;9.282;2023-02-23T08:18:23;15.63;;;14.00;;
1366;SDS011;16877;48.810;9.282;2023-02-23T08:20:52;15.13;;;13.60;;
1366;SDS011;16877;48.810;9.282;2023-02-23T08:23:23;17.60;;;15.80;;
1366;SDS011;16877;48.810;9.282;2023-02-23T08:25:51;16.13;;;13.77;;
1366;SDS011;16877;48.810;9.282;2023-02-23T08:28:20;13.93;;;12.50;;
1366;SDS011;16877;48.810;9.282;2023-02-23T08:30:49;15.30;;;13.80;;
1366;SDS011;16877;48.810;9.282;2023-02-23T08:33:16;15.70;;;14.20;;
1366;SDS011;16877;48.810;9.282;2023-02-23T08:35:44;15.27;;;13.77;;
1366;SDS011;16877;48.810;9.282;2023-02-23T08:38:12;16.30;;;14.60;;
1366;SDS011;16877;48.810;9.282;2023-02-23T08:40:40;15.47;;;13.87;;
1366;SDS011;16877;48.810;9.282;2023-02-23T08:43:08;14.80;;;13.13;;
1366;SDS011;16877;48.810;9.282;2023-02-23T08:45:39;15.87;;;13.57;;
1366;SDS011;16877;48.810;9.282;2023-02-23T08:48:06;14.63;;;13.23;;
1366;SDS011;16877;48.810;9.282;2023-02-23T08:50:35;17.03;;;15.27;;
1366;SDS011;16877;48.810;9.282;2023-02-23T08:53:03;16.57;;;14.80;;
1366;SDS011;16877;48.810;9.282;2023-02-23T08:55:31;16.40;;;14.70;;
1366;SDS011;16877;48.810;9.282;2023-02-23T08:57:59;14.03;;;12.63;;
1366;SDS011;16877;48.810;9.282;2023-02-23T09:00:33;14.87;;;13.43;;
1366;SDS011;16877;48.810;9.282;2023-02-23T09:03:03;14.10;;;12.80;;
1366;SDS011;16877;48.810;9.282;2023-02-23T09:05:30;14.83;;;13.43;;
1366;SDS011;16877;48.810;9.282;2023-02-23T09:07:58;15.10;;;13.50;;
1366;SDS011;16877;48.810;9.282;2023-02-23T09:10:25;16.37;;;14.77;;
1366;SDS011;16877;48.810;9.282;2023-02-23T09:12:53;17.97;;;16.27;;
1366;SDS011;16877;48.810;9.282;2023-02-23T09:15:20;18.33;;;14.07;;
1366;SDS011;16877;48.810;9.282;2023-02-23T09:17:48;16.90;;;14.20;;
1366;SDS011;16877;48.810;9.282;2023-02-23T09:20:17;16.43;;;14.80;;
1366;SDS011;16877;48.810;9.282;2023-02-23T09:22:50;14.83;;;13.23;;
1366;SDS011;16877;48.810;9.282;2023-02-23T09:25:20;15.53;;;13.93;;
1366;SDS011;16877;48.810;9.282;2023-02-23T09:27:48;17.03;;;15.20;;
1366;SDS011;16877;48.810;9.282;2023-02-23T09:30:17;16.20;;;14.47;;
1366;SDS011;16877;48.810;9.282;2023-02-23T09:32:45;17.00;;;14.80;;
1366;SDS011;16877;48.810;9.282;2023-02-23T09:35:13;16.07;;;13.47;;
1366;SDS011;16877;48.810;9.282;2023-02-23T09:37:43;14.93;;;13.43;;
1366;SDS011;16877;48.810;9.282;2023-02-23T09:40:13;13.30;;;11.87;;
1366;SDS011;16877;48.810;9.282;2023-02-23T09:42:43;13.93;;;12.63;;
1366;SDS011;16877;48.810;9.282;2023-02-23T09:45:20;13.00;;;11.70;;
1366;SDS011;16877;48.810;9.282;2023-02-23T09:48:02;13.33;;;11.90;;
1366;SDS011;16877;48.810;9.282;2023-02-23T09:50:35;12.37;;;11.07;;
1366;SDS011;16877;48.810;9.282;2023-02-23T09:53:06;13.17;;;11.80;;
1366;SDS011;16877;48.810;9.282;2023-02-23T09:55:55;14.57;;;11.33;;
1366;SDS011;16877;48.810;9.282;2023-02-23T09:58:24;11.97;;;10.77;;
1366;SDS011;16877;48.810;9.282;2023-02-23T10:04:03;14.43;;;12.90;;
1366;SDS011;16877;48.810;9.282;2023-02-23T10:06:33;11.73;;;10.63;;
1366;SDS011;16877;48.810;9.282;2023-02-23T10:09:09;11.83;;;10.67;;
1366;SDS011;16877;48.810;9.282;2023-02-23T10:11:44;12.07;;;10.87;;
1366;SDS011;16877;48.810;9.282;2023-02-23T10:14:24;12.37;;;11.00;;
1366;SDS011;16877;48.810;9.282;2023-02-23T10:17:04;12.17;;;10.93;;
1366;SDS011;16877;48.810;9.282;2023-02-23T10:19:42;12.33;;;10.90;;
1366;SDS011;16877;48.810;9.282;2023-02-23T10:22:16;12.10;;;10.90;;
1366;SDS011;16877;48.810;9.282;2023-02-23T10:24:48;13.00;;;11.07;;
1366;SDS011;16877;48.810;9.282;2023-02-23T10:27:19;11.70;;;10.50;;
1366;SDS011;16877;48.810;9.282;2023-02-23T10:29:48;10.50;;;9.50;;
1366;SDS011;16877;48.810;9.282;2023-02-23T10:32:18;10.57;;;9.57;;
1366;SDS011;16877;48.810;9.282;2023-02-23T10:34:51;11.77;;;10.57;;
1366;SDS011;16877;48.810;9.282;2023-02-23T10:37:20;11.90;;;10.80;;
1366;SDS011;16877;48.810;9.282;2023-02-23T10:39:50;13.80;;;11.13;;
1366;SDS011;16877;48.810;9.282;2023-02-23T10:42:19;11.00;;;9.90;;
1366;SDS011;16877;48.810;9.282;2023-02-23T10:44:52;10.43;;;9.43;;
1366;SDS011;16877;48.810;9.282;2023-02-23T10:47:22;10.00;;;9.00;;
1366;SDS011;16877;48.810;9.282;2023-02-23T10:49:52;10.60;;;9.50;;
1366;SDS011;16877;48.810;9.282;2023-02-23T10:52:38;9.93;;;8.93;;
1366;SDS011;16877;48.810;9.282;2023-02-23T10:55:28;12.20;;;9.10;;
1366;SDS011;16877;48.810;9.282;2023-02-23T10:58:00;9.97;;;7.57;;
1366;SDS011;16877;48.810;9.282;2023-02-23T11:00:34;8.87;;;7.97;;
1366;SDS011;16877;48.810;9.282;2023-02-23T11:03:22;12.33;;;8.97;;
1366;SDS011;16877;48.810;9.282;2023-02-23T11:06:10;9.70;;;8.30;;
1366;SDS011;16877;48.810;9.282;2023-02-23T11:08:55;8.30;;;7.50;;
1366;SDS011;16877;48.810;9.282;2023-02-23T11:11:25;9.70;;;7.03;;
1366;SDS011;16877;48.810;9.282;2023-02-23T11:13:55;8.47;;;7.20;;
1366;SDS011;16877;48.810;9.282;2023-02-23T11:16:23;8.80;;;7.50;;
1366;SDS011;16877;48.810;9.282;2023-02-23T11:18:54;7.77;;;6.73;;
1366;SDS011;16877;48.810;9.282;2023-02-23T11:21:24;10.13;;;7.47;;
1366;SDS011;16877;48.810;9.282;2023-02-23T11:23:54;7.87;;;7.07;;
1366;SDS011;16877;48.810;9.282;2023-02-23T11:26:28;9.77;;;7.50;;
1366;SDS011;16877;48.810;9.282;2023-02-23T11:28:58;9.00;;;7.30;;
1366;SDS011;16877;48.810;9.282;2023-02-23T11:31:30;8.50;;;7.50;;
1366;SDS011;16877;48.810;9.282;2023-02-23T11:33:58;7.47;;;6.60;;
1366;SDS011;16877;48.810;9.282;2023-02-23T11:36:28;9.10;;;7.73;;
1366;SDS011;16877;48.810;9.282;2023-02-23T11:39:06;8.97;;;7.50;;
1366;SDS011;16877;48.810;9.282;2023-02-23T11:41:45;7.20;;;6.50;;
1366;SDS011;16877;48.810;9.282;2023-02-23T11:44:18;8.00;;;6.27;;
1366;SDS011;16877;48.810;9.282;2023-02-23T11:46:46;8.97;;;5.70;;
1366;SDS011;16877;48.810;9.282;2023-02-23T11:49:16;7.63;;;5.87;;
1366;SDS011;16877;48.810;9.282;2023-02-23T11:51:51;7.43;;;5.53;;
1366;SDS011;16877;48.810;9.282;2023-02-23T11:54:20;6.53;;;5.27;;
1366;SDS011;16877;48.810;9.282;2023-02-23T11:56:52;8.43;;;5.87;;
1366;SDS011;16877;48.810;9.282;2023-02-23T11:59:27;7.13;;;4.60;;
1366;SDS011;16877;48.810;9.282;2023-02-23T12:01:58;5.63;;;4.33;;
1366;SDS011;16877;48.810;9.282;2023-02-23T12:04:32;7.17;;;4.33;;
1366;SDS011;16877;48.810;9.282;2023-02-23T12:07:22;7.90;;;4.53;;
1366;SDS011;16877;48.810;9.282;2023-02-23T12:09:57;5.63;;;4.60;;
1366;SDS011;16877;48.810;9.282;2023-02-23T12:12:34;5.70;;;3.80;;
1366;SDS011;16877;48.810;9.282;2023-02-23T12:15:11;5.73;;;4.07;;
1366;SDS011;16877;48.810;9.282;2023-02-23T12:17:47;6.80;;;4.43;;
1366;SDS011;16877;48.810;9.282;2023-02-23T12:20:23;7.47;;;3.93;;
1366;SDS011;16877;48.810;9.282;2023-02-23T12:22:55;6.53;;;4.87;;
1366;SDS011;16877;48.810;9.282;2023-02-23T12:25:26;6.70;;;4.43;;
1366;SDS011;16877;48.810;9.282;2023-02-23T12:28:08;6.50;;;4.60;;
1366;SDS011;16877;48.810;9.282;2023-02-23T12:30:39;7.30;;;5.40;;
1366;SDS011;16877;48.810;9.282;2023-02-23T12:33:12;7.07;;;5.60;;
1366;SDS011;16877;48.810;9.282;2023-02-23T12:35:49;6.20;;;4.73;;
1366;SDS011;16877;48.810;9.282;2023-02-23T12:38:24;5.70;;;4.90;;
1366;SDS011;16877;48.810;9.282;2023-02-23T12:41:11;5.77;;;4.37;;
1366;SDS011;16877;48.810;9.282;2023-02-23T12:43:43;5.80;;;4.13;;
1366;SDS011;16877;48.810;9.282;2023-02-23T12:46:17;6.10;;;4.20;;
1366;SDS011;16877;48.810;9.282;2023-02-23T12:48:49;5.20;;;3.70;;
1366;SDS011;16877;48.810;9.282;2023-02-23T12:51:24;6.70;;;4.70;;
1366;SDS011;16877;48.810;9.282;2023-02-23T12:53:56;6.07;;;3.83;;
1366;SDS011;16877;48.810;9.282;2023-02-23T12:56:29;6.10;;;4.23;;
1366;SDS011;16877;48.810;9.282;2023-02-23T12:59:17;9.00;;;5.33;;
1366;SDS011;16877;48.810;9.282;2023-02-23T13:01:53;7.30;;;4.53;;
1366;SDS011;16877;48.810;9.282;2023-02-23T13:04:27;5.67;;;4.83;;
1366;SDS011;16877;48.810;9.282;2023-02-23T13:07:11;5.57;;;4.37;;
1366;SDS011;16877;48.810;9.282;2023-02-23T13:09:49;4.80;;;3.67;;
1366;SDS011;16877;48.810;9.282;2023-02-23T13:12:39;5.10;;;3.97;;
1366;SDS011;16877;48.810;9.282;2023-02-23T13:15:17;6.33;;;4.13;;
1366;SDS011;16877;48.810;9.282;2023-02-23T13:17:55;7.13;;;4.67;;
1366;SDS011;16877;48.810;9.282;2023-02-23T13:20:32;8.23;;;4.40;;
1366;SDS011;16877;48.810;9.282;2023-02-23T13:23:07;4.57;;;4.03;;
1366;SDS011;16877;48.810;9.282;2023-02-23T13:25:41;8.37;;;4.10;;
1366;SDS011;16877;48.810;9.282;2023-02-23T13:28:15;6.70;;;4.30;;
1366;SDS011;16877;48.810;9.282;2023-02-23T13:30:48;5.40;;;4.20;;
1366;SDS011;16877;48.810;9.282;2023-02-23T13:33:20;7.60;;;4.40;;
1366;SDS011;16877;48.810;9.282;2023-02-23T13:35:53;4.93;;;3.90;;
1366;SDS011;16877;48.810;9.282;2023-02-23T13:38:22;6.87;;;4.40;;
1366;SDS011;16877;48.810;9.282;2023-02-23T13:40:58;6.17;;;4.27;;
1366;SDS011;16877;48.810;9.282;2023-02-23T13:43:36;7.27;;;4.70;;
1366;SDS011;16877;48.810;9.282;2023-02-23T13:46:14;7.00;;;4.77;;
1366;SDS011;16877;48.810;9.282;2023-02-23T13:48:50;5.70;;;4.40;;
1366;SDS011;16877;48.810;9.282;2023-02-23T13:51:23;9.80;;;5.03;;
1366;SDS011;16877;48.810;9.282;2023-02-23T13:54:02;12.57;;;5.43;;
1366;SDS011;16877;48.810;9.282;2023-02-23T13:56:33;8.77;;;5.80;;
1366;SDS011;16877;48.810;9.282;2023-02-23T13:59:07;6.83;;;5.20;;
1366;SDS011;16877;48.810;9.282;2023-02-23T14:01:44;7.77;;;5.93;;
1366;SDS011;16877;48.810;9.282;2023-02-23T14:04:13;6.83;;;5.30;;
1366;SDS011;16877;48.810;9.282;2023-02-23T14:06:50;7.20;;;5.00;;
1366;SDS011;16877;48.810;9.282;2023-02-23T14:09:21;9.67;;;5.13;;
1366;SDS011;16877;48.810;9.282;2023-02-23T14:11:55;6.43;;;4.97;;
1366;SDS011;16877;48.810;9.282;2023-02-23T14:14:38;8.53;;;5.00;;
1366;SDS011;16877;48.810;9.282;2023-02-23T14:17:11;9.87;;;5.70;;
1366;SDS011;16877;48.810;9.282;2023-02-23T14:20:16;7.00;;;4.90;;
1366;SDS011;16877;48.810;9.282;2023-02-23T14:23:04;12.80;;;6.43;;
1366;SDS011;16877;48.810;9.282;2023-02-23T14:25:52;10.27;;;6.20;;
1366;SDS011;16877;48.810;9.282;2023-02-23T14:28:37;9.70;;;6.13;;
1366;SDS011;16877;48.810;9.282;2023-02-23T14:31:14;5.70;;;4.50;;
1366;SDS011;16877;48.810;9.282;2023-02-23T14:33:50;9.13;;;5.90;;
1366;SDS011;16877;48.810;9.282;2023-02-23T14:36:35;6.83;;;4.90;;
1366;SDS011;16877;48.810;9.282;2023-02-23T14:39:08;8.47;;;5.17;;
1366;SDS011;16877;48.810;9.282;2023-02-23T14:41:44;7.47;;;5.23;;
1366;SDS011;16877;48.810;9.282;2023-02-23T14:44:16;7.87;;;6.10;;
1366;SDS011;16877;48.810;9.282;2023-02-23T14:46:48;9.50;;;6.17;;
1366;SDS011;16877;48.810;9.282;2023-02-23T14:49:25;10.27;;;6.00;;
1366;SDS011;16877;48.810;9.282;2023-02-23T14:52:04;6.90;;;6.00;;
1366;SDS011;16877;48.810;9.282;2023-02-23T14:54:33;10.70;;;6.23;;
1366;SDS011;16877;48.810;9.282;2023-02-23T14:57:04;7.63;;;5.40;;
1366;SDS011;16877;48.810;9.282;2023-02-23T14:59:36;7.70;;;4.70;;
1366;SDS011;16877;48.810;9.282;2023-02-23T15:02:08;10.60;;;5.70;;
1366;SDS011;16877;48.810;9.282;2023-02-23T15:04:38;7.50;;;4.90;;
1366;SDS011;16877;48.810;9.282;2023-02-23T15:07:08;9.80;;;5.73;;
1366;SDS011;16877;48.810;9.282;2023-02-23T15:09:48;13.90;;;9.03;;
1366;SDS011;16877;48.810;9.282;2023-02-23T15:12:19;12.00;;;8.00;;
1366;SDS011;16877;48.810;9.282;2023-02-23T15:14:52;16.33;;;9.33;;
1366;SDS011;16877;48.810;9.282;2023-02-23T15:17:34;16.47;;;9.90;;
1366;SDS011;16877;48.810;9.282;2023-02-23T15:20:10;24.33;;;11.67;;
1366;SDS011;16877;48.810;9.282;2023-02-23T15:22:41;33.23;;;13.70;;
1366;SDS011;16877;48.810;9.282;2023-02-23T15:25:32;16.53;;;10.47;;